Flight Track Log - Related Links

Times and Time Zones

All times are in EDT time to prevent confusion due to time zone crossing. See the SWA1512 flight status page for this flight to view local times or setup timezone preferences in your user account.

Time Position Orientation Groundspeed Altitude Reporting Facility
EDT Latitude Longitude Course Direction KTS MPH feet Rate Location/Type
Sat 09:28:25 PM 31.8000 -106.3650 90° East 141 162 4,400  Level Albuquerque Center
Sat 09:29:07 PM 31.7997 -106.3283 87° East 164 189 5,700 2,438 Climbing Albuquerque Center
Sat 09:30:33 PM 31.8050 -106.2064 89° East 242 278 9,600 2,918 Climbing Albuquerque Center
Sat 09:31:33 PM 31.8061 -106.0989 86° East 287 330 12,800 3,550 Climbing Albuquerque Center
Sat 09:32:33 PM 31.8131 -105.9817 89° East 333 383 16,700 3,500 Climbing Albuquerque Center
Sat 09:33:33 PM 31.8156 -105.8547 87° East 359 413 19,800 3,100 Climbing Albuquerque Center
Sat 09:34:33 PM 31.8222 -105.7228 89° East 388 447 22,900 2,850 Climbing Albuquerque Center
Sat 09:35:33 PM 31.8244 -105.5833 87° East 408 470 25,500 2,350 Climbing Albuquerque Center
Sat 09:36:33 PM 31.8289 -105.4661 87° East 425 489 27,600 2,200 Climbing Albuquerque Center
Sat 09:37:33 PM 31.8347 -105.3072 88° East 437 503 29,900 2,050 Climbing Albuquerque Center
Sat 09:38:33 PM 31.8383 -105.1533 88° East 456 525 31,700 1,800 Climbing Albuquerque Center
Sat 09:39:33 PM 31.8436 -104.9944 89° East 470 541 33,500 1,850 Climbing Albuquerque Center
Sat 09:40:33 PM 31.8467 -104.8356 87° East 481 554 35,400 1,750 Climbing Albuquerque Center
Sat 09:41:33 PM 31.8536 -104.6767 84° East 481 554 37,000 1,650 Climbing Albuquerque Center
Sat 09:42:33 PM 31.8686 -104.5172 83° East 486 559 38,700 1,000 Climbing Albuquerque Center
Sat 09:43:33 PM 31.8856 -104.3606 84° East 486 559 39,000 150 Climbing Albuquerque Center
Sat 09:44:33 PM 31.9003 -104.2011 85° East 486 559 39,000 372 Level Albuquerque Center
Sat 09:45:58 PM 31.9192 -103.9644 84° East 481 554 39,900 828 Climbing Fort Worth Center
Sat 09:46:58 PM 31.9336 -103.8089 86° East 481 554 41,000 550 Climbing Fort Worth Center
Sat 09:47:58 PM 31.9436 -103.6531 87° East 476 548 41,000  Level Fort Worth Center
Sat 09:48:58 PM 31.9514 -103.4944 85° East 476 548 41,000  Level Fort Worth Center
Sat 09:49:58 PM 31.9631 -103.3361 87° East 476 548 41,000  Level Fort Worth Center
Sat 09:50:58 PM 31.9703 -103.1775 85° East 476 548 41,000  Level Fort Worth Center
Sat 09:51:58 PM 31.9819 -103.0167 86° East 476 548 41,000  Level Fort Worth Center
Sat 09:53:58 PM 31.9997 -102.6969 86° East 476 548 41,000  Level Fort Worth Center
Sat 09:54:58 PM 32.0083 -102.5408 87° East 476 548 41,000  Level Fort Worth Center
Sat 09:55:58 PM 32.0147 -102.3819 86° East 476 548 41,000  Level Fort Worth Center
Sat 09:56:58 PM 32.0231 -102.2231 87° East 476 548 41,000  Level Fort Worth Center
Sat 09:57:58 PM 32.0314 -102.0594 87° East 476 548 41,000  Level Fort Worth Center
Sat 09:58:58 PM 32.0386 -101.9175 87° East 476 548 41,000  Level Fort Worth Center
Sat 10:00:10 PM 32.0472 -101.7269 87° East 481 554 41,000  Level Fort Worth Center
Sat 10:01:10 PM 32.0547 -101.5681 87° East 481 554 41,000  Level Fort Worth Center
Sat 10:02:10 PM 32.0619 -101.4089 88° East 481 554 41,000  Level Fort Worth Center
Sat 10:03:10 PM 32.0672 -101.2450 87° East 481 554 41,000  Level Fort Worth Center
Sat 10:04:10 PM 32.0742 -101.0833 88° East 486 559 41,000  Level Fort Worth Center
Sat 10:05:10 PM 32.0789 -100.9097 87° East 491 565 41,000  Level Fort Worth Center
Sat 10:06:10 PM 32.0856 -100.7481 86° East 491 565 41,000  Level Fort Worth Center
Sat 10:07:10 PM 32.0939 -100.5864 86° East 491 565 41,000  Level Fort Worth Center
Sat 10:08:10 PM 32.1042 -100.4250 85° East 496 571 41,000  Level Fort Worth Center
Sat 10:09:10 PM 32.1161 -100.2661 86° East 496 571 41,000  Level Fort Worth Center
Sat 10:10:10 PM 32.1256 -100.1192 86° East 496 571 41,000  Level Fort Worth Center
Sat 10:11:10 PM 32.1353 -99.9575 84° East 496 571 41,000  Level Fort Worth Center
Sat 10:12:10 PM 32.1489 -99.7958 86° East 496 571 41,000  Level Fort Worth Center
Sat 10:13:10 PM 32.1581 -99.6317 86° East 496 571 41,000  Level Fort Worth Center
Sat 10:14:10 PM 32.1672 -99.4700 85° East 496 571 41,000  Level Fort Worth Center
Sat 10:15:22 PM 32.1781 -99.3083 86° East 496 571 41,000 -591 Level Fort Worth Center
Sat 10:16:22 PM 32.1892 -99.1122 86° East 496 571 39,700 -1,950 Descending Fort Worth Center
Sat 10:17:22 PM 32.1997 -98.9503 86° East 496 571 37,100 -2,900 Descending Fort Worth Center
Sat 10:18:22 PM 32.2100 -98.7933 86° East 496 571 33,900 -3,150 Descending Fort Worth Center
Sat 10:19:22 PM 32.2200 -98.6289 86° East 496 571 30,800 -3,000 Descending Fort Worth Center
Sat 10:20:22 PM 32.2297 -98.4572 87° East 485 558 27,900 -2,750 Descending Fort Worth Center
Sat 10:21:22 PM 32.2372 -98.3025 86° East 475 547 25,300 -2,500 Descending Fort Worth Center
Sat 10:22:22 PM 32.2467 -98.1578 87° East 455 524 22,900 -2,450 Descending Fort Worth Center
Sat 10:23:22 PM 32.2536 -98.0178 88° East 428 493 20,400 -2,250 Descending Fort Worth Center
Sat 10:24:22 PM 32.2583 -97.8850 85° East 412 474 18,400 -2,059 Descending Fort Worth Center
Sat 10:25:04 PM 32.2639 -97.8033 89° East 391 450 16,900 -2,296 Descending FAA TRACON SMA TRACON (SMA)
Sat 10:25:43 PM 32.2656 -97.7178 75° East 384 442 15,300 -1,975 Descending FAA TRACON SMA TRACON (SMA)
Sat 10:26:23 PM 32.2836 -97.6386 57° Northeast 367 422 14,300 -1,259 Descending FAA TRACON SMA TRACON (SMA)
Sat 10:27:04 PM 32.3197 -97.5728 55° Northeast 343 395 13,600 -963 Descending FAA TRACON SMA TRACON (SMA)
Sat 10:27:44 PM 32.3528 -97.5169 56° Northeast 338 389 13,000 -975 Descending FAA TRACON SMA TRACON (SMA)
Sat 10:28:24 PM 32.3889 -97.4528 56° Northeast 339 390 12,300 -1,050 Descending FAA TRACON SMA TRACON (SMA)
Sat 10:29:04 PM 32.4253 -97.3900 56° Northeast 334 384 11,600 -1,367 Descending FAA TRACON SMA TRACON (SMA)
Sat 10:29:43 PM 32.4567 -97.3350 57° Northeast 327 376 10,500 -1,125 Descending FAA TRACON SMA TRACON (SMA)
Sat 10:30:24 PM 32.4886 -97.2761 56° Northeast 303 349 10,100 -815 Descending FAA TRACON SMA TRACON (SMA)
Sat 10:31:04 PM 32.5183 -97.2236 56° Northeast 276 318 9,400 -1,200 Descending FAA TRACON SMA TRACON (SMA)
Sat 10:31:44 PM 32.5475 -97.1731 56° Northeast 267 307 8,500 -1,275 Descending FAA TRACON SMA TRACON (SMA)
Sat 10:32:24 PM 32.5725 -97.1289 56° Northeast 263 303 7,700 -1,291 Descending FAA TRACON SMA TRACON (SMA)
Sat 10:33:03 PM 32.5997 -97.0806 56° Northeast 252 290 6,800 -1,275 Descending FAA TRACON SMA TRACON (SMA)
Sat 10:33:44 PM 32.6233 -97.0383 56° Northeast 248 285 6,000 -1,037 Descending FAA TRACON SMA TRACON (SMA)
Sat 10:34:24 PM 32.6492 -96.9922 56° Northeast 242 278 5,400 -675 Descending FAA TRACON SMA TRACON (SMA)
Sat 10:35:04 PM 32.6731 -96.9503 56° Northeast 221 254 5,100 -450 Descending FAA TRACON SMA TRACON (SMA)
Sat 10:35:44 PM 32.6936 -96.9147 60° Northeast 189 217 4,800 -525 Descending FAA TRACON SMA TRACON (SMA)
Sat 10:36:24 PM 32.7078 -96.8861 62° Northeast 162 186 4,400 -900 Descending FAA TRACON SMA TRACON (SMA)
Sat 10:37:04 PM 32.7211 -96.8558 50° Northeast 151 174 3,600 -1,050 Descending FAA TRACON SMA TRACON (SMA)
Sat 10:37:44 PM 32.7383 -96.8311 21° North 144 166 3,000 -975 Descending FAA TRACON SMA TRACON (SMA)
Sat 10:38:24 PM 32.7594 -96.8214 14° North 132 152 2,300 -975 Descending FAA TRACON SMA TRACON (SMA)
Sat 10:39:04 PM 32.7833 -96.8144 North 122 140 1,700 -900 Descending FAA TRACON SMA TRACON (SMA)
Sat 10:39:44 PM 32.8072 -96.8142 324° Northwest 124 143 1,100 -600 Descending FAA TRACON SMA TRACON (SMA)
Sat 10:40:24 PM 32.8244 -96.8289 182° South 129 148 900 -300 Descending FAA TRACON SMA TRACON (SMA)
Sat 10:48:32 PM 31.8528 -96.8686 182° South  Level FlightAware Approximate

Login

Don't have an account? Register now (free) for customized features, flight alerts, and more!